Monday, July 23, 2018, 11:49 AM GMT
Back to Local

CYMX, Montreal / Mirabel

Location: , , Canada Lat: 45.683
Local Time: 11:49 AM GMT (11:49 GMT) Lon: -74.033
Time Zone: GMT Elev: 269 ft

Show me the last for .
Show Decoded

2018-07-23 11:00 METAR CYMX 231100Z 04005KT 010V070 6SM BR SCT004 SCT060 BKN130 BKN250 20/19
                 A3012 RMK SF3SC1AC1CI2 SLP200 DENSITY ALT 700FT =
2018-07-23 10:00 METAR CYMX 231000Z 08004KT 010V110 6SM BR SCT004 BKN050 BKN130 BKN250 19/19
                 A3010 RMK SF3SC2AC1CI1 SLP195 DENSITY ALT 600FT =
2018-07-23 09:00 METAR CYMX 230900Z 05006KT 020V100 20SM FEW004 SCT140 BKN260 19/18 A3009 RMK
                 SF1AC3CI2 SF TR SLP190 DENSITY ALT 600FT =
2018-07-23 08:00 METAR CYMX 230800Z 07003KT 25SM FEW005 SCT260 19/18 A3009 RMK SF1CI2 SLP190
                 DENSITY ALT 600FT =
2018-07-23 07:10 METAR CYMX 230710Z 03005KT 010V080 25SM FEW005 FEW250 19/18 A3009 RMK SF1CI2 SF
                 TR SLP190 DENSITY ALT 600FT =
2018-07-23 07:00 METAR CYMX 230700Z 05004KT 350V110 25SM FEW250 19/18 A3009 RMK CI2 SLP190
                 DENSITY ALT 600FT =
2018-07-23 06:00 METAR CYMX 230600Z 06004KT 010V100 25SM FEW250 19/19 A3008 RMK CI2 SLP189
                 DENSITY ALT 700FT =
2018-07-23 05:00 METAR CYMX 230500Z 04004KT 25SM FEW250 19/19 A3009 RMK CI2 SLP191 DENSITY ALT
                 700FT =
2018-07-23 04:00 METAR CYMX 230400Z 09003KT 010V100 25SM FEW250 20/19 A3009 RMK CI2 SLP192
                 DENSITY ALT 700FT =
2018-07-23 03:00 METAR CYMX 230300Z 08004KT 030V100 25SM FEW250 20/19 A3009 RMK CI2 SLP191
                 DENSITY ALT 800FT =
2018-07-23 02:00 METAR CYMX 230200Z 07003KT 020V130 25SM FEW040 FEW060 SCT280 21/19 A3008 RMK
                 SC1SC2CI1 SC TR SLP187 DENSITY ALT 900FT =
2018-07-23 01:00 METAR CYMX 230100Z 05003KT 010V090 25SM FEW040 FEW060 FEW110 SCT250 21/19 A3006
                 RMK SC1SC1AC1CI2 SC TR TCU TOPS DIST SW-N SLP180 DENSITY ALT 1000FT =
2018-07-23 00:00 METAR CYMX 230000Z 05006KT 010V110 45SM FEW021 SCT059 SCT130 BKN280 23/19 A3004
                 RMK SF1SC3AC1CI1 SF TR SLP175 DENSITY ALT 1100FT =
2018-07-22 23:00 METAR CYMX 222300Z 05006KT 010V100 45SM FEW020 SCT060 BKN110 BKN260 23/19 A3003
                 RMK SC1SC4AC1CI2 SC TR SLP172 DENSITY ALT 1100FT =
2018-07-22 22:00 METAR CYMX 222200Z 06006KT 010V100 45SM SCT020 BKN090 BKN260 22/19 A3002 RMK
                 SC3AC2CI2 SLP169 DENSITY ALT 1100FT =
2018-07-22 21:00 METAR CYMX 222100Z 06005G16KT 020V100 45SM BKN020 BKN260 22/18 A3003 RMK SC5CI2
                 SLP170 DENSITY ALT 1000FT =
2018-07-22 20:00 METAR CYMX 222000Z 08011KT 45SM FEW012 BKN025 OVC120 20/18 A3005 RMK CF1SC6AC1
                 SLP177 DENSITY ALT 900FT =
2018-07-22 19:00 METAR CYMX 221900Z 06009G18KT 020V090 25SM FEW013 SCT055 BKN120 BKN230 20/17
                 A3004 RMK CF2SC2AC2CI1 SLP176 DENSITY ALT 800FT =
2018-07-22 18:37 METAR CYMX 221837Z 07008G16KT 010V100 25SM FEW011 SCT050 BKN090 BKN220 19/17
                 A3006 RMK CF2SC2AC1CI2 SLP180 DENSITY ALT 700FT =
2018-07-22 18:00 METAR CYMX 221800Z 07009G17KT 030V090 6SM -RA BR FEW008 BKN012 BKN025 OVC040
                 18/16 A3007 RMK SF2SC3SC2SC1 SLP183 DENSITY ALT 500FT =
2018-07-22 17:00 METAR CYMX 221700Z 06005G16KT 010V090 15SM -RA BKN040 OVC095 17/16 A3006 RMK
                 SC7AC1 SLP181 DENSITY ALT 500FT =
2018-07-22 16:00 METAR CYMX 221600Z VRB06KT 15SM -RA SCT042 BKN065 OVC096 17/15 A3007 RMK
                 SC4SC2AC2 SLP184 DENSITY ALT 500FT =
2018-07-22 15:00 METAR CYMX 221500Z 06006KT 350V100 10SM -SHRA BKN062 OVC079 18/16 A3008 RMK
                 SC5AC3 CVCTV CLDS EMBD SLP189 DENSITY ALT 500FT =
2018-07-22 14:00 METAR CYMX 221400Z 06003KT 360V110 10SM -SHRA BKN063 OVC075 18/15 A3008 RMK
                 SC7AC1 CVCTV CLD EMBD SLP189 DENSITY ALT 500FT =
2018-07-22 13:00 METAR CYMX 221300Z 07006KT 330V100 25SM -SHRA FEW060 BKN075 BKN210 OVC250 19/14
                 A3007 RMK SC2AC4CI1CI1 CVCTV CLD EMBD SLP186 DENSITY ALT 600FT =
2018-07-22 12:00 METAR CYMX 221200Z 06005KT 340V120 35SM FEW075 BKN210 BKN250 17/15 A3005 RMK
                 ACC2CI3CI2 SLP178 DENSITY ALT 500FT =

Support USWX by starting your Amazon purchase here.